sensor_id;sensor_type;location;lat;lon;timestamp;pressure;altitude;pressure_sealevel;temperature;humidity
10510;BME280;5303;53.266;10.410;2023-08-08T00:01:34;100652.41;;;14.01;100.00
10510;BME280;5303;53.266;10.410;2023-08-08T00:04:00;100649.59;;;14.07;100.00
10510;BME280;5303;53.266;10.410;2023-08-08T00:06:25;100648.88;;;13.99;100.00
10510;BME280;5303;53.266;10.410;2023-08-08T00:08:50;100638.44;;;13.91;100.00
10510;BME280;5303;53.266;10.410;2023-08-08T00:11:16;100647.97;;;14.01;100.00
10510;BME280;5303;53.266;10.410;2023-08-08T00:13:41;100640.09;;;13.97;100.00
10510;BME280;5303;53.266;10.410;2023-08-08T00:16:06;100648.78;;;14.05;100.00
10510;BME280;5303;53.266;10.410;2023-08-08T00:18:32;100646.13;;;14.05;100.00
10510;BME280;5303;53.266;10.410;2023-08-08T00:20:57;100642.69;;;14.00;100.00
10510;BME280;5303;53.266;10.410;2023-08-08T00:23:22;100646.22;;;13.99;100.00
10510;BME280;5303;53.266;10.410;2023-08-08T00:25:47;100657.59;;;14.05;100.00
10510;BME280;5303;53.266;10.410;2023-08-08T00:28:15;100646.19;;;14.02;100.00
10510;BME280;5303;53.266;10.410;2023-08-08T00:30:41;100647.19;;;13.95;100.00
10510;BME280;5303;53.266;10.410;2023-08-08T00:33:06;100649.09;;;13.90;100.00
10510;BME280;5303;53.266;10.410;2023-08-08T00:35:31;100638.53;;;13.87;100.00
10510;BME280;5303;53.266;10.410;2023-08-08T00:37:57;100644.69;;;13.87;100.00
10510;BME280;5303;53.266;10.410;2023-08-08T00:40:22;100638.75;;;13.74;100.00
10510;BME280;5303;53.266;10.410;2023-08-08T00:42:47;100619.41;;;13.71;100.00
10510;BME280;5303;53.266;10.410;2023-08-08T00:45:12;100629.97;;;13.72;100.00
10510;BME280;5303;53.266;10.410;2023-08-08T00:47:38;100636.91;;;13.78;100.00
10510;BME280;5303;53.266;10.410;2023-08-08T00:50:04;100633.28;;;13.83;100.00
10510;BME280;5303;53.266;10.410;2023-08-08T00:52:29;100631.41;;;13.90;100.00
10510;BME280;5303;53.266;10.410;2023-08-08T00:54:56;100639.22;;;13.96;100.00
10510;BME280;5303;53.266;10.410;2023-08-08T00:57:21;100635.50;;;14.05;100.00
10510;BME280;5303;53.266;10.410;2023-08-08T00:59:46;100631.22;;;13.98;100.00
10510;BME280;5303;53.266;10.410;2023-08-08T01:02:12;100631.19;;;14.01;100.00
10510;BME280;5303;53.266;10.410;2023-08-08T01:04:37;100633.97;;;13.93;100.00
10510;BME280;5303;53.266;10.410;2023-08-08T01:07:15;100638.22;;;14.02;100.00
10510;BME280;5303;53.266;10.410;2023-08-08T01:09:50;100632.09;;;14.00;100.00
10510;BME280;5303;53.266;10.410;2023-08-08T01:12:18;100633.19;;;13.90;100.00
10510;BME280;5303;53.266;10.410;2023-08-08T01:14:44;100634.84;;;13.94;100.00
10510;BME280;5303;53.266;10.410;2023-08-08T01:17:10;100630.28;;;14.02;100.00
10510;BME280;5303;53.266;10.410;2023-08-08T01:19:36;100624.06;;;14.03;100.00
10510;BME280;5303;53.266;10.410;2023-08-08T01:22:05;100618.69;;;14.06;100.00
10510;BME280;5303;53.266;10.410;2023-08-08T01:24:33;100614.22;;;14.08;100.00
10510;BME280;5303;53.266;10.410;2023-08-08T01:27:02;100604.59;;;14.04;100.00
10510;BME280;5303;53.266;10.410;2023-08-08T01:29:28;100614.09;;;14.14;100.00
10510;BME280;5303;53.266;10.410;2023-08-08T01:31:53;100604.31;;;14.16;100.00
10510;BME280;5303;53.266;10.410;2023-08-08T01:34:18;100616.75;;;14.14;100.00
10510;BME280;5303;53.266;10.410;2023-08-08T01:37:05;100610.44;;;14.20;100.00
10510;BME280;5303;53.266;10.410;2023-08-08T01:39:33;100611.34;;;14.20;100.00
10510;BME280;5303;53.266;10.410;2023-08-08T01:42:00;100609.44;;;14.25;100.00
10510;BME280;5303;53.266;10.410;2023-08-08T01:44:26;100604.25;;;14.19;100.00
10510;BME280;5303;53.266;10.410;2023-08-08T01:46:53;100598.09;;;14.17;100.00
10510;BME280;5303;53.266;10.410;2023-08-08T01:49:18;100600.72;;;14.20;100.00
10510;BME280;5303;53.266;10.410;2023-08-08T01:51:44;100606.16;;;14.14;100.00
10510;BME280;5303;53.266;10.410;2023-08-08T01:54:09;100603.59;;;14.08;100.00
10510;BME280;5303;53.266;10.410;2023-08-08T01:56:34;100603.59;;;14.08;100.00
10510;BME280;5303;53.266;10.410;2023-08-08T01:59:00;100600.84;;;14.14;100.00
10510;BME280;5303;53.266;10.410;2023-08-08T02:01:25;100595.53;;;14.14;100.00
10510;BME280;5303;53.266;10.410;2023-08-08T02:03:50;100592.81;;;14.17;100.00
10510;BME280;5303;53.266;10.410;2023-08-08T02:06:15;100595.41;;;14.20;100.00
10510;BME280;5303;53.266;10.410;2023-08-08T02:08:41;100593.53;;;14.25;100.00
10510;BME280;5303;53.266;10.410;2023-08-08T02:11:06;100595.19;;;14.31;100.00
10510;BME280;5303;53.266;10.410;2023-08-08T02:13:31;100584.56;;;14.29;100.00
10510;BME280;5303;53.266;10.410;2023-08-08T02:15:57;100584.91;;;14.14;100.00
10510;BME280;5303;53.266;10.410;2023-08-08T02:18:22;100587.41;;;14.22;100.00
10510;BME280;5303;53.266;10.410;2023-08-08T02:20:47;100589.13;;;14.24;100.00
10510;BME280;5303;53.266;10.410;2023-08-08T02:23:13;100590.09;;;14.20;100.00
10510;BME280;5303;53.266;10.410;2023-08-08T02:25:38;100580.34;;;14.22;100.00
10510;BME280;5303;53.266;10.410;2023-08-08T02:28:03;100586.66;;;14.15;100.00
10510;BME280;5303;53.266;10.410;2023-08-08T02:30:29;100582.34;;;14.11;100.00
10510;BME280;5303;53.266;10.410;2023-08-08T02:32:54;100575.38;;;14.05;100.00
10510;BME280;5303;53.266;10.410;2023-08-08T02:35:19;100590.25;;;14.12;100.00
10510;BME280;5303;53.266;10.410;2023-08-08T02:37:45;100581.47;;;14.09;100.00
10510;BME280;5303;53.266;10.410;2023-08-08T02:40:10;100594.75;;;14.09;100.00
10510;BME280;5303;53.266;10.410;2023-08-08T02:42:36;100595.66;;;14.08;100.00
10510;BME280;5303;53.266;10.410;2023-08-08T02:45:01;100586.06;;;14.02;100.00
10510;BME280;5303;53.266;10.410;2023-08-08T02:47:26;100597.78;;;13.91;100.00
10510;BME280;5303;53.266;10.410;2023-08-08T02:49:51;100603.94;;;13.93;100.00
10510;BME280;5303;53.266;10.410;2023-08-08T02:52:17;100601.56;;;13.77;100.00
10510;BME280;5303;53.266;10.410;2023-08-08T02:54:42;100606.19;;;13.69;100.00
10510;BME280;5303;53.266;10.410;2023-08-08T02:57:07;100605.47;;;13.60;100.00
10510;BME280;5303;53.266;10.410;2023-08-08T02:59:36;100592.13;;;13.64;100.00
10510;BME280;5303;53.266;10.410;2023-08-08T03:02:01;100599.13;;;13.67;100.00
10510;BME280;5303;53.266;10.410;2023-08-08T03:04:28;100594.78;;;13.64;100.00
10510;BME280;5303;53.266;10.410;2023-08-08T03:06:54;100592.31;;;13.53;100.00
10510;BME280;5303;53.266;10.410;2023-08-08T03:09:19;100587.81;;;13.57;100.00
10510;BME280;5303;53.266;10.410;2023-08-08T03:11:44;100593.13;;;13.57;100.00
10510;BME280;5303;53.266;10.410;2023-08-08T03:14:09;100585.13;;;13.60;100.00
10510;BME280;5303;53.266;10.410;2023-08-08T03:16:35;100584.28;;;13.58;100.00
10510;BME280;5303;53.266;10.410;2023-08-08T03:19:00;100590.44;;;13.59;100.00
10510;BME280;5303;53.266;10.410;2023-08-08T03:21:25;100588.88;;;13.48;100.00
10510;BME280;5303;53.266;10.410;2023-08-08T03:23:50;100595.25;;;13.40;100.00
10510;BME280;5303;53.266;10.410;2023-08-08T03:26:16;100574.91;;;13.40;100.00
10510;BME280;5303;53.266;10.410;2023-08-08T03:28:41;100588.88;;;13.48;100.00
10510;BME280;5303;53.266;10.410;2023-08-08T03:31:06;100576.56;;;13.46;100.00
10510;BME280;5303;53.266;10.410;2023-08-08T03:33:32;100565.91;;;13.47;100.00
10510;BME280;5303;53.266;10.410;2023-08-08T03:35:57;100573.91;;;13.46;100.00
10510;BME280;5303;53.266;10.410;2023-08-08T03:38:23;100567.00;;;13.39;100.00
10510;BME280;5303;53.266;10.410;2023-08-08T03:40:48;100565.22;;;13.38;100.00
10510;BME280;5303;53.266;10.410;2023-08-08T03:43:13;100574.91;;;13.40;100.00
10510;BME280;5303;53.266;10.410;2023-08-08T03:45:39;100565.19;;;13.41;100.00
10510;BME280;5303;53.266;10.410;2023-08-08T03:48:04;100567.81;;;13.42;100.00
10510;BME280;5303;53.266;10.410;2023-08-08T03:50:29;100574.03;;;13.38;100.00
10510;BME280;5303;53.266;10.410;2023-08-08T03:52:55;100566.09;;;13.38;100.00
10510;BME280;5303;53.266;10.410;2023-08-08T03:55:20;100575.75;;;13.42;100.00
10510;BME280;5303;53.266;10.410;2023-08-08T03:57:46;100570.53;;;13.38;100.00
10510;BME280;5303;53.266;10.410;2023-08-08T04:00:11;100575.81;;;13.38;100.00
10510;BME280;5303;53.266;10.410;2023-08-08T04:02:36;100563.47;;;13.37;100.00
10510;BME280;5303;53.266;10.410;2023-08-08T04:05:02;100563.38;;;13.43;100.00
10510;BME280;5303;53.266;10.410;2023-08-08T04:07:27;100571.38;;;13.40;100.00
10510;BME280;5303;53.266;10.410;2023-08-08T04:09:53;100565.00;;;13.48;100.00
10510;BME280;5303;53.266;10.410;2023-08-08T04:12:18;100564.19;;;13.46;100.00
10510;BME280;5303;53.266;10.410;2023-08-08T04:14:43;100557.97;;;13.49;100.00
10510;BME280;5303;53.266;10.410;2023-08-08T04:17:08;100561.50;;;13.48;100.00
10510;BME280;5303;53.266;10.410;2023-08-08T04:19:34;100565.19;;;13.41;100.00
10510;BME280;5303;53.266;10.410;2023-08-08T04:21:59;100561.56;;;13.45;100.00
10510;BME280;5303;53.266;10.410;2023-08-08T04:24:25;100559.69;;;13.51;100.00
10510;BME280;5303;53.266;10.410;2023-08-08T04:26:50;100559.72;;;13.50;100.00
10510;BME280;5303;53.266;10.410;2023-08-08T04:29:15;100564.16;;;13.49;100.00
10510;BME280;5303;53.266;10.410;2023-08-08T04:31:40;100545.53;;;13.52;100.00
10510;BME280;5303;53.266;10.410;2023-08-08T04:34:06;100554.41;;;13.50;100.00
10510;BME280;5303;53.266;10.410;2023-08-08T04:36:31;100547.31;;;13.52;100.00
10510;BME280;5303;53.266;10.410;2023-08-08T04:38:56;100556.03;;;13.57;100.00
10510;BME280;5303;53.266;10.410;2023-08-08T04:41:22;100561.31;;;13.57;100.00
10510;BME280;5303;53.266;10.410;2023-08-08T04:43:47;100566.50;;;13.63;100.00
10510;BME280;5303;53.266;10.410;2023-08-08T04:46:12;100556.66;;;13.71;100.00
10510;BME280;5303;53.266;10.410;2023-08-08T04:48:38;100559.13;;;13.79;100.00
10510;BME280;5303;53.266;10.410;2023-08-08T04:51:09;100552.00;;;13.82;100.00
10510;BME280;5303;53.266;10.410;2023-08-08T04:53:34;100554.72;;;13.78;100.00
10510;BME280;5303;53.266;10.410;2023-08-08T04:55:59;100543.13;;;13.83;100.00
10510;BME280;5303;53.266;10.410;2023-08-08T04:58:25;100544.84;;;13.86;100.00
10510;BME280;5303;53.266;10.410;2023-08-08T05:00:50;100544.59;;;13.97;100.00
10510;BME280;5303;53.266;10.410;2023-08-08T05:03:20;100542.94;;;13.93;100.00
10510;BME280;5303;53.266;10.410;2023-08-08T05:05:45;100554.28;;;14.01;100.00
10510;BME280;5303;53.266;10.410;2023-08-08T05:08:11;100539.19;;;14.03;100.00
10510;BME280;5303;53.266;10.410;2023-08-08T05:10:36;100548.78;;;14.08;100.00
10510;BME280;5303;53.266;10.410;2023-08-08T05:13:02;100545.22;;;14.11;100.00
10510;BME280;5303;53.266;10.410;2023-08-08T05:15:27;100533.47;;;14.21;100.00
10510;BME280;5303;53.266;10.410;2023-08-08T05:17:52;100523.66;;;14.25;100.00
10510;BME280;5303;53.266;10.410;2023-08-08T05:20:20;100532.44;;;14.27;100.00
10510;BME280;5303;53.266;10.410;2023-08-08T05:22:46;100526.06;;;14.35;100.00
10510;BME280;5303;53.266;10.410;2023-08-08T05:25:11;100543.66;;;14.39;100.00
10510;BME280;5303;53.266;10.410;2023-08-08T05:27:36;100540.72;;;14.53;100.00
10510;BME280;5303;53.266;10.410;2023-08-08T05:30:02;100532.44;;;14.67;100.00
10510;BME280;5303;53.266;10.410;2023-08-08T05:32:27;100540.31;;;14.72;100.00
10510;BME280;5303;53.266;10.410;2023-08-08T05:34:52;100535.56;;;14.84;100.00
10510;BME280;5303;53.266;10.410;2023-08-08T05:37:18;100520.53;;;14.83;100.00
10510;BME280;5303;53.266;10.410;2023-08-08T05:39:43;100529.50;;;14.78;100.00
10510;BME280;5303;53.266;10.410;2023-08-08T05:42:09;100514.66;;;14.69;100.00
10510;BME280;5303;53.266;10.410;2023-08-08T05:44:34;100520.81;;;14.71;100.00
10510;BME280;5303;53.266;10.410;2023-08-08T05:47:00;100524.16;;;14.79;100.00
10510;BME280;5303;53.266;10.410;2023-08-08T05:49:25;100522.28;;;14.84;100.00
10510;BME280;5303;53.266;10.410;2023-08-08T05:51:50;100527.59;;;14.84;100.00
10510;BME280;5303;53.266;10.410;2023-08-08T05:54:15;100530.94;;;14.92;100.00
10510;BME280;5303;53.266;10.410;2023-08-08T05:56:41;100522.78;;;14.98;100.00
10510;BME280;5303;53.266;10.410;2023-08-08T05:59:06;100522.63;;;15.05;100.00
10510;BME280;5303;53.266;10.410;2023-08-08T06:01:31;100528.28;;;15.25;100.00
10510;BME280;5303;53.266;10.410;2023-08-08T06:03:58;100527.19;;;15.32;100.00
10510;BME280;5303;53.266;10.410;2023-08-08T06:06:25;100535.84;;;15.40;100.00
10510;BME280;5303;53.266;10.410;2023-08-08T06:08:50;100533.13;;;15.43;100.00
10510;BME280;5303;53.266;10.410;2023-08-08T06:11:15;100532.78;;;15.55;100.00
10510;BME280;5303;53.266;10.410;2023-08-08T06:13:41;100535.53;;;15.51;100.00
10510;BME280;5303;53.266;10.410;2023-08-08T06:16:06;100538.16;;;15.52;100.00
10510;BME280;5303;53.266;10.410;2023-08-08T06:18:35;100533.66;;;15.56;100.00
10510;BME280;5303;53.266;10.410;2023-08-08T06:21:01;100537.06;;;15.61;100.00
10510;BME280;5303;53.266;10.410;2023-08-08T06:23:26;100532.59;;;15.63;100.00
10510;BME280;5303;53.266;10.410;2023-08-08T06:25:53;100536.94;;;15.66;100.00
10510;BME280;5303;53.266;10.410;2023-08-08T06:28:19;100531.09;;;15.51;100.00
10510;BME280;5303;53.266;10.410;2023-08-08T06:30:44;100532.56;;;15.65;100.00
10510;BME280;5303;53.266;10.410;2023-08-08T06:33:09;100530.88;;;15.59;100.00
10510;BME280;5303;53.266;10.410;2023-08-08T06:35:35;100529.94;;;15.62;100.00
10510;BME280;5303;53.266;10.410;2023-08-08T06:38:00;100524.56;;;15.65;100.00
10510;BME280;5303;53.266;10.410;2023-08-08T06:40:25;100528.50;;;15.81;100.00
10510;BME280;5303;53.266;10.410;2023-08-08T06:42:51;100525.09;;;15.77;100.00
10510;BME280;5303;53.266;10.410;2023-08-08T06:45:16;100525.94;;;15.78;100.00
10510;BME280;5303;53.266;10.410;2023-08-08T06:47:41;100532.84;;;15.85;100.00
10510;BME280;5303;53.266;10.410;2023-08-08T06:50:07;100526.66;;;15.84;100.00
10510;BME280;5303;53.266;10.410;2023-08-08T06:52:33;100523.06;;;15.86;100.00
10510;BME280;5303;53.266;10.410;2023-08-08T06:54:58;100523.69;;;15.95;100.00
10510;BME280;5303;53.266;10.410;2023-08-08T06:57:23;100519.81;;;16.05;100.00
10510;BME280;5303;53.266;10.410;2023-08-08T06:59:48;100518.03;;;16.06;100.00
10510;BME280;5303;53.266;10.410;2023-08-08T07:02:16;100518.63;;;16.16;100.00
10510;BME280;5303;53.266;10.410;2023-08-08T07:04:42;100504.53;;;16.12;100.00
10510;BME280;5303;53.266;10.410;2023-08-08T07:07:07;100507.06;;;16.17;100.00
10510;BME280;5303;53.266;10.410;2023-08-08T07:09:33;100512.28;;;16.20;100.00
10510;BME280;5303;53.266;10.410;2023-08-08T07:11:58;100499.78;;;16.22;100.00
10510;BME280;5303;53.266;10.410;2023-08-08T07:14:23;100510.53;;;16.19;100.00
10510;BME280;5303;53.266;10.410;2023-08-08T07:16:49;100513.84;;;16.27;100.00
10510;BME280;5303;53.266;10.410;2023-08-08T07:19:14;100512.75;;;16.32;100.00
10510;BME280;5303;53.266;10.410;2023-08-08T07:21:40;100512.13;;;16.24;100.00
10510;BME280;5303;53.266;10.410;2023-08-08T07:24:06;100513.56;;;16.36;100.00
10510;BME280;5303;53.266;10.410;2023-08-08T07:26:31;100508.00;;;16.42;100.00
10510;BME280;5303;53.266;10.410;2023-08-08T07:28:56;100495.75;;;16.64;100.00
10510;BME280;5303;53.266;10.410;2023-08-08T07:31:22;100487.97;;;16.86;100.00
10510;BME280;5303;53.266;10.410;2023-08-08T07:33:47;100490.25;;;16.97;100.00
10510;BME280;5303;53.266;10.410;2023-08-08T07:36:12;100478.28;;;17.09;100.00
10510;BME280;5303;53.266;10.410;2023-08-08T07:38:37;100486.59;;;16.99;100.00
10510;BME280;5303;53.266;10.410;2023-08-08T07:41:03;100494.34;;;17.07;100.00
10510;BME280;5303;53.266;10.410;2023-08-08T07:43:28;100488.72;;;17.15;100.00
10510;BME280;5303;53.266;10.410;2023-08-08T07:45:54;100488.44;;;17.22;100.00
10510;BME280;5303;53.266;10.410;2023-08-08T07:48:19;100491.69;;;17.07;100.00
10510;BME280;5303;53.266;10.410;2023-08-08T07:50:44;100486.09;;;17.13;100.00
10510;BME280;5303;53.266;10.410;2023-08-08T07:53:09;100481.88;;;17.08;100.00
10510;BME280;5303;53.266;10.410;2023-08-08T07:55:35;100488.16;;;17.05;100.00
10510;BME280;5303;53.266;10.410;2023-08-08T07:58:00;100495.91;;;17.13;100.00
10510;BME280;5303;53.266;10.410;2023-08-08T08:00:25;100488.41;;;16.99;100.00
10510;BME280;5303;53.266;10.410;2023-08-08T08:02:51;100489.91;;;17.06;100.00
10510;BME280;5303;53.266;10.410;2023-08-08T08:05:17;100488.78;;;17.13;100.00
10510;BME280;5303;53.266;10.410;2023-08-08T08:07:43;100488.41;;;17.24;100.00
10510;BME280;5303;53.266;10.410;2023-08-08T08:10:10;100473.75;;;17.36;100.00
10510;BME280;5303;53.266;10.410;2023-08-08T08:12:38;100474.53;;;17.39;100.00
10510;BME280;5303;53.266;10.410;2023-08-08T08:15:03;100461.72;;;17.49;100.00
10510;BME280;5303;53.266;10.410;2023-08-08T08:17:29;100450.47;;;17.64;100.00
10510;BME280;5303;53.266;10.410;2023-08-08T08:19:54;100459.53;;;17.83;100.00
10510;BME280;5303;53.266;10.410;2023-08-08T08:22:20;100441.56;;;17.89;100.00
10510;BME280;5303;53.266;10.410;2023-08-08T08:24:45;100453.03;;;17.91;100.00
10510;BME280;5303;53.266;10.410;2023-08-08T08:27:11;100445.84;;;17.93;100.00
10510;BME280;5303;53.266;10.410;2023-08-08T08:29:36;100456.28;;;17.75;100.00
10510;BME280;5303;53.266;10.410;2023-08-08T08:32:02;100454.28;;;17.82;100.00
10510;BME280;5303;53.266;10.410;2023-08-08T08:34:27;100449.94;;;17.79;100.00
10510;BME280;5303;53.266;10.410;2023-08-08T08:36:52;100453.53;;;17.78;100.00
10510;BME280;5303;53.266;10.410;2023-08-08T08:39:17;100450.59;;;17.61;100.00
10510;BME280;5303;53.266;10.410;2023-08-08T08:41:48;100445.25;;;17.61;100.00
10510;BME280;5303;53.266;10.410;2023-08-08T08:44:14;100452.88;;;17.72;100.00
10510;BME280;5303;53.266;10.410;2023-08-08T08:46:41;100449.47;;;17.67;100.00
10510;BME280;5303;53.266;10.410;2023-08-08T08:49:07;100464.06;;;17.58;100.00
10510;BME280;5303;53.266;10.410;2023-08-08T08:51:35;100451.53;;;17.35;100.00
10510;BME280;5303;53.266;10.410;2023-08-08T08:54:01;100464.88;;;17.35;100.00
10510;BME280;5303;53.266;10.410;2023-08-08T08:56:26;100469.91;;;17.19;100.00
10510;BME280;5303;53.266;10.410;2023-08-08T08:58:52;100473.59;;;17.15;100.00
10510;BME280;5303;53.266;10.410;2023-08-08T09:01:17;100479.41;;;17.02;100.00
10510;BME280;5303;53.266;10.410;2023-08-08T09:03:44;100491.25;;;16.93;100.00
10510;BME280;5303;53.266;10.410;2023-08-08T09:06:11;100495.53;;;16.72;100.00
10510;BME280;5303;53.266;10.410;2023-08-08T09:08:36;100497.06;;;16.79;100.00
10510;BME280;5303;53.266;10.410;2023-08-08T09:11:02;100508.72;;;16.77;100.00
10510;BME280;5303;53.266;10.410;2023-08-08T09:13:35;100497.84;;;16.55;100.00
10510;BME280;5303;53.266;10.410;2023-08-08T09:16:01;100510.28;;;16.54;100.00
10510;BME280;5303;53.266;10.410;2023-08-08T09:18:26;100504.72;;;16.62;100.00
10510;BME280;5303;53.266;10.410;2023-08-08T09:20:51;100501.03;;;16.66;100.00
10510;BME280;5303;53.266;10.410;2023-08-08T09:23:17;100510.63;;;16.72;100.00
10510;BME280;5303;53.266;10.410;2023-08-08T09:25:42;100514.50;;;16.89;100.00
10510;BME280;5303;53.266;10.410;2023-08-08T09:28:07;100503.88;;;16.88;100.00
10510;BME280;5303;53.266;10.410;2023-08-08T09:30:33;100510.34;;;17.06;100.00
10510;BME280;5303;53.266;10.410;2023-08-08T09:33:00;100504.28;;;17.02;100.00
10510;BME280;5303;53.266;10.410;2023-08-08T09:35:26;100492.81;;;17.00;100.00
10510;BME280;5303;53.266;10.410;2023-08-08T09:37:54;100505.25;;;16.99;100.00
10510;BME280;5303;53.266;10.410;2023-08-08T09:40:19;100494.91;;;17.15;100.00
10510;BME280;5303;53.266;10.410;2023-08-08T09:42:46;100494.59;;;17.24;100.00
10510;BME280;5303;53.266;10.410;2023-08-08T09:45:11;100497.75;;;17.36;100.00
10510;BME280;5303;53.266;10.410;2023-08-08T09:47:37;100503.75;;;17.42;100.00
10510;BME280;5303;53.266;10.410;2023-08-08T09:50:03;100497.31;;;17.48;100.00
10510;BME280;5303;53.266;10.410;2023-08-08T09:52:34;100495.94;;;17.61;100.00
10510;BME280;5303;53.266;10.410;2023-08-08T09:55:00;100492.63;;;17.79;100.00
10510;BME280;5303;53.266;10.410;2023-08-08T09:57:25;100484.00;;;17.95;100.00
10510;BME280;5303;53.266;10.410;2023-08-08T09:59:52;100483.84;;;17.99;100.00
10510;BME280;5303;53.266;10.410;2023-08-08T10:02:17;100479.75;;;17.91;100.00
10510;BME280;5303;53.266;10.410;2023-08-08T10:04:45;100478.44;;;17.77;100.00
10510;BME280;5303;53.266;10.410;2023-08-08T10:07:10;100486.78;;;17.68;100.00
10510;BME280;5303;53.266;10.410;2023-08-08T10:09:36;100495.47;;;17.50;100.00
10510;BME280;5303;53.266;10.410;2023-08-08T10:12:03;100515.78;;;17.29;100.00
10510;BME280;5303;53.266;10.410;2023-08-08T10:14:31;100526.81;;;16.92;100.00
10510;BME280;5303;53.266;10.410;2023-08-08T10:16:56;100528.84;;;16.57;100.00
10510;BME280;5303;53.266;10.410;2023-08-08T10:19:23;100530.75;;;16.24;100.00
10510;BME280;5303;53.266;10.410;2023-08-08T10:21:48;100532.22;;;16.06;100.00
10510;BME280;5303;53.266;10.410;2023-08-08T10:24:20;100532.59;;;15.94;100.00
10510;BME280;5303;53.266;10.410;2023-08-08T10:26:59;100533.19;;;15.73;100.00
10510;BME280;5303;53.266;10.410;2023-08-08T10:29:28;100544.31;;;15.87;100.00
10510;BME280;5303;53.266;10.410;2023-08-08T10:32:07;100545.13;;;15.89;100.00
10510;BME280;5303;53.266;10.410;2023-08-08T10:34:40;100542.38;;;15.92;100.00
10510;BME280;5303;53.266;10.410;2023-08-08T10:37:16;100557.97;;;15.73;100.00
10510;BME280;5303;53.266;10.410;2023-08-08T10:39:58;100584.31;;;15.50;100.00
10510;BME280;5303;53.266;10.410;2023-08-08T10:42:25;100561.38;;;15.12;100.00
10510;BME280;5303;53.266;10.410;2023-08-08T10:44:55;100567.63;;;14.75;100.00
10510;BME280;5303;53.266;10.410;2023-08-08T10:47:30;100564.06;;;14.76;100.00
10510;BME280;5303;53.266;10.410;2023-08-08T10:50:04;100568.66;;;14.69;100.00
10510;BME280;5303;53.266;10.410;2023-08-08T10:52:30;100550.91;;;14.72;100.00
10510;BME280;5303;53.266;10.410;2023-08-08T10:54:55;100548.28;;;14.70;100.00
10510;BME280;5303;53.266;10.410;2023-08-08T10:57:24;100549.88;;;14.77;100.00
10510;BME280;5303;53.266;10.410;2023-08-08T10:59:50;100551.25;;;14.93;100.00
10510;BME280;5303;53.266;10.410;2023-08-08T11:02:15;100548.47;;;14.98;100.00
10510;BME280;5303;53.266;10.410;2023-08-08T11:04:41;100552.88;;;14.99;100.00
10510;BME280;5303;53.266;10.410;2023-08-08T11:07:06;100548.09;;;15.13;100.00
10510;BME280;5303;53.266;10.410;2023-08-08T11:09:32;100534.22;;;15.35;100.00
10510;BME280;5303;53.266;10.410;2023-08-08T11:11:57;100539.31;;;15.42;100.00
10510;BME280;5303;53.266;10.410;2023-08-08T11:14:23;100530.00;;;15.59;100.00
10510;BME280;5303;53.266;10.410;2023-08-08T11:16:50;100520.72;;;15.75;100.00
10510;BME280;5303;53.266;10.410;2023-08-08T11:19:15;100516.69;;;15.91;100.00
10510;BME280;5303;53.266;10.410;2023-08-08T11:21:49;100505.22;;;16.19;100.00
10510;BME280;5303;53.266;10.410;2023-08-08T11:24:15;100503.56;;;16.42;100.00
10510;BME280;5303;53.266;10.410;2023-08-08T11:26:42;100508.47;;;16.56;100.00
10510;BME280;5303;53.266;10.410;2023-08-08T11:29:09;100493.47;;;16.52;100.00
10510;BME280;5303;53.266;10.410;2023-08-08T11:31:34;100502.28;;;16.54;100.00
10510;BME280;5303;53.266;10.410;2023-08-08T11:34:00;100505.53;;;16.64;100.00
10510;BME280;5303;53.266;10.410;2023-08-08T11:36:29;100499.53;;;16.57;100.00
10510;BME280;5303;53.266;10.410;2023-08-08T11:38:54;100502.28;;;16.54;100.00
10510;BME280;5303;53.266;10.410;2023-08-08T11:41:22;100498.63;;;16.58;100.00
10510;BME280;5303;53.266;10.410;2023-08-08T11:43:49;100493.59;;;16.49;100.00
10510;BME280;5303;53.266;10.410;2023-08-08T11:46:15;100497.19;;;16.48;100.00
10510;BME280;5303;53.266;10.410;2023-08-08T11:48:41;100508.69;;;16.49;100.00
10510;BME280;5303;53.266;10.410;2023-08-08T11:51:07;100497.06;;;16.51;100.00
10510;BME280;5303;53.266;10.410;2023-08-08T11:53:33;100500.25;;;16.62;100.00
10510;BME280;5303;53.266;10.410;2023-08-08T11:55:59;100496.56;;;16.68;100.00
10510;BME280;5303;53.266;10.410;2023-08-08T11:58:25;100489.59;;;16.62;100.00
10510;BME280;5303;53.266;10.410;2023-08-08T12:00:51;100491.56;;;16.84;100.00
10510;BME280;5303;53.266;10.410;2023-08-08T12:03:20;100496.78;;;17.13;100.00
10510;BME280;5303;53.266;10.410;2023-08-08T12:05:46;100488.34;;;17.25;100.00
10510;BME280;5303;53.266;10.410;2023-08-08T12:08:20;100493.41;;;17.58;100.00
10510;BME280;5303;53.266;10.410;2023-08-08T12:10:49;100479.38;;;17.76;100.00
10510;BME280;5303;53.266;10.410;2023-08-08T12:13:20;100489.94;;;18.03;100.00
10510;BME280;5303;53.266;10.410;2023-08-08T12:15:46;100481.13;;;18.23;100.00
10510;BME280;5303;53.266;10.410;2023-08-08T12:18:16;100472.56;;;18.36;100.00
10510;BME280;5303;53.266;10.410;2023-08-08T12:20:42;100473.56;;;18.56;100.00
10510;BME280;5303;53.266;10.410;2023-08-08T12:23:07;100470.81;;;18.79;100.00
10510;BME280;5303;53.266;10.410;2023-08-08T12:25:33;100474.84;;;18.89;100.00
10510;BME280;5303;53.266;10.410;2023-08-08T12:27:59;100456.25;;;18.86;100.00
10510;BME280;5303;53.266;10.410;2023-08-08T12:30:24;100455.88;;;18.95;100.00
10510;BME280;5303;53.266;10.410;2023-08-08T12:32:49;100467.53;;;18.51;100.00
10510;BME280;5303;53.266;10.410;2023-08-08T12:35:15;100452.63;;;18.45;100.00